Tuckahoe, Virginia
Current Conditions -  °F | °C
As of 3:54 AM on Friday 24 Oct 2014 (Local Time) from KOFP Reporting Station
Clear Clear  
Wind Chill: 45°   Ceiling: Unl
Heat Index: 47°   Visibility: 10mi
Dew Point: 42°   Wind: 5mph
Humidity: 83%   Direction: 280°W
Pressure: 29.96"   Gusts: NA
Location:  37.5871°N, 77.5706°W
Report Text: KOFP 240754Z AUTO 28004KT 10SM CLR 08/06 A2996 RMK AO2 SLP146 T00830056
Loading
Personal Weather Stations






























Interactive Weather Map
Tropical Storm Tracking
New forecast layout! Learn more

10-Day Weather Forecast

Advertisements
Track Severe Weather on mobile